Time;durP1;ratioP1;P1;durP2;ratioP2;P2;SDS_P1;SDS_P2;PMS_P1;PMS_P2;Temp;Humidity;BMP_temperature;BMP_pressure;BME280_temperature;BME280_humidity;BME280_pressure;Samples;Min_cycle;Max_cycle;Signal;HPM_P1;HPM_P2
2022/08/13 00:00:14;;;;;;;0.10;0.10;;;19.90;95.80;;;;;;5052494;28;20078;-83
2022/08/13 00:02:42;;;;;;;0.10;0.10;;;19.90;96.00;;;;;;5061631;28;20045;-82
2022/08/13 00:05:09;;;;;;;0.10;0.10;;;19.90;96.10;;;;;;5067891;28;20045;-83
2022/08/13 00:07:35;;;;;;;0.10;0.10;;;19.90;96.20;;;;;;5071853;28;20046;-82
2022/08/13 00:10:04;;;;;;;0.20;0.20;;;19.90;96.30;;;;;;5074185;28;20109;-83
2022/08/13 00:15:39;;;;;;;0.20;0.20;;;19.90;96.60;;;;;;5082173;28;20083;-82
2022/08/13 00:18:07;;;;;;;0.17;0.17;;;19.90;97.00;;;;;;5069714;28;20110;-82
2022/08/13 00:20:59;;;;;;;0.20;0.20;;;19.90;96.70;;;;;;5073200;28;20136;-82
2022/08/13 00:23:27;;;;;;;0.20;0.20;;;19.90;96.90;;;;;;5061483;28;20393;-83
2022/08/13 00:25:57;;;;;;;0.10;0.10;;;19.90;96.90;;;;;;5074321;28;20048;-82
2022/08/13 00:28:32;;;;;;;0.17;0.17;;;19.90;97.00;;;;;;5068182;28;20139;-83
2022/08/13 00:30:59;;;;;;;0.20;0.20;;;19.90;97.20;;;;;;5067929;28;20485;-82
2022/08/13 00:33:25;;;;;;;0.10;0.10;;;19.90;97.20;;;;;;5069631;28;20048;-82
2022/08/13 00:35:53;;;;;;;0.20;0.20;;;19.80;97.30;;;;;;5068951;28;20119;-83
2022/08/13 00:38:24;;;;;;;0.20;0.20;;;19.80;97.40;;;;;;5069456;28;20759;-83
2022/08/13 00:40:52;;;;;;;0.13;0.13;;;19.80;97.50;;;;;;5070116;28;20083;-84
2022/08/13 00:43:19;;;;;;;0.10;0.10;;;19.80;97.70;;;;;;5069580;28;20044;-82
2022/08/13 00:45:45;;;;;;;0.10;0.10;;;19.80;97.70;;;;;;5056211;28;20084;-83
2022/08/13 00:50:56;;;;;;;0.10;0.10;;;19.70;97.80;;;;;;5075833;28;20817;-83
2022/08/13 00:53:24;;;;;;;0.20;0.20;;;19.80;98.00;;;;;;5078377;28;20093;-83
2022/08/13 00:55:53;;;;;;;0.20;0.20;;;19.70;98.30;;;;;;5085260;28;20044;-83
2022/08/13 00:58:20;;;;;;;0.20;0.20;;;19.70;98.20;;;;;;5066830;28;20040;-83
2022/08/13 01:00:47;;;;;;;0.20;0.20;;;19.70;98.30;;;;;;5068744;28;20045;-83
2022/08/13 01:03:14;;;;;;;0.20;0.20;;;19.70;98.40;;;;;;5066713;28;20080;-83
2022/08/13 01:05:43;;;;;;;0.20;0.20;;;19.60;98.40;;;;;;5071851;28;20399;-83
2022/08/13 01:08:10;;;;;;;0.15;0.15;;;19.60;98.50;;;;;;5065277;28;20042;-83
2022/08/13 01:10:37;;;;;;;0.10;0.10;;;19.60;98.60;;;;;;5058667;28;20555;-82
2022/08/13 01:13:07;;;;;;;0.20;0.20;;;19.60;98.80;;;;;;5071068;28;20138;-82
2022/08/13 01:15:34;;;;;;;0.10;0.10;;;19.60;98.80;;;;;;5076928;28;20055;-82
2022/08/13 01:18:01;;;;;;;0.20;0.20;;;19.60;98.90;;;;;;5086101;28;20115;-83
2022/08/13 01:20:30;;;;;;;0.20;0.20;;;19.50;98.80;;;;;;5068626;28;20118;-82
2022/08/13 01:22:57;;;;;;;0.20;0.20;;;19.60;99.00;;;;;;5071407;28;20117;-83
2022/08/13 01:25:24;;;;;;;0.10;0.10;;;19.50;99.00;;;;;;5066916;28;20533;-82
2022/08/13 01:27:50;;;;;;;0.20;0.20;;;19.50;99.00;;;;;;5068692;28;20119;-82
2022/08/13 01:30:17;;;;;;;0.10;0.10;;;19.50;99.10;;;;;;5074415;28;20115;-83
2022/08/13 01:32:44;;;;;;;0.20;0.20;;;19.40;99.10;;;;;;5078461;28;20095;-82
2022/08/13 01:35:10;;;;;;;0.20;0.20;;;19.40;99.20;;;;;;5068697;28;20041;-82
2022/08/13 01:37:39;;;;;;;0.10;0.10;;;19.40;99.30;;;;;;5079532;28;20246;-83
2022/08/13 01:40:06;;;;;;;0.20;0.20;;;19.40;99.30;;;;;;5076600;28;20055;-83
2022/08/13 01:42:44;;;;;;;0.10;0.10;;;19.50;99.40;;;;;;5070282;28;20049;-83
2022/08/13 01:45:11;;;;;;;0.20;0.20;;;19.50;99.30;;;;;;5071456;28;20086;-83
2022/08/13 01:50:29;;;;;;;0.20;0.20;;;19.40;99.40;;;;;;5096759;28;20044;-82
2022/08/13 01:53:07;;;;;;;0.20;0.20;;;19.50;99.50;;;;;;5083655;28;20040;-82
2022/08/13 01:55:42;;;;;;;0.10;0.10;;;19.40;99.50;;;;;;5069367;28;20071;-83
2022/08/13 01:58:11;;;;;;;0.10;0.10;;;19.40;99.50;;;;;;5081770;28;20450;-83
2022/08/13 02:00:39;;;;;;;0.20;0.20;;;19.50;99.50;;;;;;5069088;28;20129;-82
2022/08/13 02:03:11;;;;;;;0.20;0.20;;;19.30;99.60;;;;;;5061609;28;20447;-84
2022/08/13 02:05:38;;;;;;;0.20;0.20;;;19.30;99.70;;;;;;5083795;28;20036;-83
2022/08/13 02:08:11;;;;;;;0.20;0.20;;;19.30;99.70;;;;;;5077117;28;20408;-83
2022/08/13 02:10:39;;;;;;;0.10;0.10;;;19.20;99.80;;;;;;5068281;28;20037;-83
2022/08/13 02:13:06;;;;;;;0.15;0.15;;;19.20;99.90;;;;;;5070699;28;20056;-83
2022/08/13 02:15:38;;;;;;;0.13;0.13;;;19.20;99.90;;;;;;5081952;28;20036;-84
2022/08/13 02:18:04;;;;;;;0.10;0.10;;;19.10;99.90;;;;;;5069393;28;20060;-83
2022/08/13 02:20:37;;;;;;;0.10;0.10;;;19.10;99.90;;;;;;5069188;28;20463;-83
2022/08/13 02:23:06;;;;;;;0.20;0.20;;;19.10;99.90;;;;;;5079149;28;20049;-83
2022/08/13 02:25:34;;;;;;;0.20;0.20;;;19.10;99.90;;;;;;5067112;28;20557;-83
2022/08/13 02:27:59;;;;;;;0.20;0.20;;;19.00;99.90;;;;;;5063254;28;20051;-83
2022/08/13 02:30:29;;;;;;;0.20;0.20;;;19.00;99.90;;;;;;5071318;28;20032;-83
2022/08/13 02:33:00;;;;;;;0.17;0.17;;;19.00;99.90;;;;;;5076550;28;20048;-83
2022/08/13 02:35:27;;;;;;;0.20;0.20;;;19.00;99.90;;;;;;5070629;28;20111;-84
2022/08/13 02:37:56;;;;;;;0.10;0.10;;;19.00;99.90;;;;;;5066684;28;20079;-83
2022/08/13 02:43:06;;;;;;;0.15;0.15;;;18.90;99.90;;;;;;5071633;28;21577;-83
2022/08/13 02:45:32;;;;;;;0.20;0.20;;;19.00;99.90;;;;;;5069332;28;20047;-83
2022/08/13 02:47:58;;;;;;;0.20;0.20;;;19.00;99.90;;;;;;5064695;28;20044;-83
2022/08/13 02:50:27;;;;;;;0.10;0.10;;;18.90;99.90;;;;;;5078116;28;20376;-83
2022/08/13 02:52:53;;;;;;;0.20;0.20;;;18.90;99.90;;;;;;5063781;28;20492;-82
2022/08/13 02:55:20;;;;;;;0.20;0.20;;;18.90;99.90;;;;;;5064961;28;20082;-82
2022/08/13 02:57:46;;;;;;;0.20;0.20;;;18.70;99.90;;;;;;5076194;28;20036;-82
2022/08/13 03:00:13;;;;;;;0.20;0.20;;;18.80;99.90;;;;;;5060183;28;20041;-83
2022/08/13 03:02:44;;;;;;;0.20;0.20;;;18.80;99.90;;;;;;5072097;28;20212;-83
2022/08/13 03:05:13;;;;;;;0.15;0.15;;;18.70;99.90;;;;;;5080352;28;20083;-83
2022/08/13 03:07:43;;;;;;;0.20;0.20;;;18.80;99.90;;;;;;5070847;28;20048;-83
2022/08/13 03:10:11;;;;;;;0.20;0.20;;;18.70;99.90;;;;;;5065798;28;20082;-83
2022/08/13 03:12:41;;;;;;;0.17;0.17;;;18.70;99.90;;;;;;5072975;28;20541;-83
2022/08/13 03:15:09;;;;;;;0.10;0.10;;;18.80;99.90;;;;;;5054621;28;20489;-82
2022/08/13 03:17:37;;;;;;;0.15;0.15;;;18.60;99.90;;;;;;5083123;28;20041;-82
2022/08/13 03:20:05;;;;;;;0.20;0.20;;;18.60;99.90;;;;;;5068124;28;20444;-83
2022/08/13 03:22:31;;;;;;;0.10;0.10;;;18.60;99.90;;;;;;5071290;28;20033;-81
2022/08/13 03:24:56;;;;;;;0.20;0.20;;;18.60;99.90;;;;;;5094012;28;20392;-82
2022/08/13 03:27:22;;;;;;;0.20;0.20;;;18.60;99.90;;;;;;5068701;28;20032;-83
2022/08/13 03:29:52;;;;;;;0.20;0.20;;;18.60;99.90;;;;;;5062033;28;20526;-83
2022/08/13 03:32:18;;;;;;;0.20;0.20;;;18.50;99.90;;;;;;5064784;28;20781;-82
2022/08/13 03:34:44;;;;;;;0.10;0.10;;;18.60;99.90;;;;;;5059396;28;20148;-83
2022/08/13 03:37:10;;;;;;;0.20;0.20;;;18.40;99.90;;;;;;5066187;28;20398;-83
2022/08/13 03:39:36;;;;;;;0.20;0.20;;;18.50;99.90;;;;;;5069995;28;20078;-82
2022/08/13 03:42:02;;;;;;;0.20;0.20;;;18.50;99.90;;;;;;5066960;28;20491;-83
2022/08/13 03:44:28;;;;;;;0.15;0.15;;;18.50;99.90;;;;;;5069184;28;20041;-83
2022/08/13 03:46:54;;;;;;;0.15;0.15;;;18.40;99.90;;;;;;5070443;28;20126;-83
2022/08/13 03:49:19;;;;;;;0.10;0.10;;;18.40;99.90;;;;;;5066871;28;20400;-83
2022/08/13 03:51:45;;;;;;;0.20;0.20;;;18.40;99.90;;;;;;5066537;28;20032;-83
2022/08/13 03:54:12;;;;;;;0.20;0.20;;;18.50;99.90;;;;;;5066216;28;20194;-84
2022/08/13 03:56:38;;;;;;;0.20;0.20;;;18.40;99.90;;;;;;5068236;28;20041;-83
2022/08/13 03:59:04;;;;;;;0.20;0.20;;;18.40;99.90;;;;;;5067922;28;20048;-82
2022/08/13 04:01:30;;;;;;;0.10;0.10;;;18.30;99.90;;;;;;5053337;28;20714;-83
2022/08/13 04:03:55;;;;;;;0.20;0.20;;;18.30;99.90;;;;;;5065969;28;20492;-83
2022/08/13 04:06:23;;;;;;;0.20;0.20;;;18.30;99.90;;;;;;5051231;28;20045;-83
2022/08/13 04:08:49;;;;;;;0.10;0.10;;;18.30;99.90;;;;;;5062659;28;20466;-83
2022/08/13 04:11:22;;;;;;;0.20;0.20;;;18.30;99.90;;;;;;5067555;28;20033;-83
2022/08/13 04:13:48;;;;;;;0.13;0.13;;;18.20;99.90;;;;;;5069682;28;20044;-83
2022/08/13 04:16:20;;;;;;;0.10;0.10;;;18.30;99.90;;;;;;5065046;28;20040;-82
2022/08/13 04:18:47;;;;;;;0.20;0.20;;;18.30;99.90;;;;;;5068598;28;20396;-82
2022/08/13 04:21:15;;;;;;;0.20;0.20;;;18.20;99.90;;;;;;5069062;28;20055;-81
2022/08/13 04:23:43;;;;;;;0.20;0.20;;;18.30;99.90;;;;;;5052411;28;20036;-82
2022/08/13 04:26:11;;;;;;;0.10;0.10;;;18.20;99.90;;;;;;5054652;28;20041;-82
2022/08/13 04:28:41;;;;;;;0.20;0.20;;;18.20;99.90;;;;;;5056433;28;20047;-82
2022/08/13 04:31:10;;;;;;;0.10;0.10;;;18.20;99.90;;;;;;5076354;28;20454;-82
2022/08/13 04:33:36;;;;;;;0.20;0.20;;;18.10;99.90;;;;;;5073903;28;20136;-82
2022/08/13 04:36:03;;;;;;;0.10;0.10;;;18.20;99.90;;;;;;5063891;28;20076;-83
2022/08/13 04:38:29;;;;;;;0.10;0.10;;;18.20;99.90;;;;;;5064425;28;20036;-83
2022/08/13 04:40:56;;;;;;;0.20;0.20;;;18.20;99.90;;;;;;5063366;28;20496;-82
2022/08/13 04:43:21;;;;;;;0.20;0.20;;;18.20;99.90;;;;;;5066236;28;20041;-82
2022/08/13 04:45:47;;;;;;;0.20;0.20;;;18.20;99.90;;;;;;5064771;28;20044;-82
2022/08/13 04:48:15;;;;;;;0.10;0.10;;;18.20;99.90;;;;;;5066467;28;20497;-82
2022/08/13 04:50:43;;;;;;;0.20;0.20;;;18.20;99.90;;;;;;5078470;28;20093;-82
2022/08/13 04:53:23;;;;;;;0.10;0.10;;;18.20;99.90;;;;;;5056555;28;20036;-83
2022/08/13 04:55:49;;;;;;;0.20;0.20;;;18.10;99.90;;;;;;5071482;28;20611;-82
2022/08/13 04:58:18;;;;;;;0.22;0.22;;;18.10;99.90;;;;;;5080967;28;20041;-82
2022/08/13 05:00:45;;;;;;;0.17;0.17;;;18.20;99.90;;;;;;5067377;28;20044;-82
2022/08/13 05:03:13;;;;;;;0.20;0.20;;;18.20;99.90;;;;;;5062686;28;20056;-82
2022/08/13 05:05:40;;;;;;;0.10;0.10;;;18.10;99.90;;;;;;5065913;28;20102;-82
2022/08/13 05:08:07;;;;;;;0.20;0.20;;;18.20;99.90;;;;;;5082540;28;20285;-81
2022/08/13 05:10:37;;;;;;;0.17;0.17;;;;;;;;;;5083007;28;20127;-82
2022/08/13 05:13:04;;;;;;;0.20;0.20;;;;;;;;;;5080785;28;20451;-82
2022/08/13 05:15:31;;;;;;;0.20;0.20;;;;;;;;;;5090805;28;20087;-82
2022/08/13 05:17:57;;;;;;;0.10;0.10;;;;;;;;;;5087820;28;20105;-82
2022/08/13 05:20:23;;;;;;;0.13;0.13;;;;;;;;;;5067775;28;20053;-82
2022/08/13 05:22:50;;;;;;;0.15;0.15;;;;;;;;;;5068702;28;20048;-82
2022/08/13 05:25:16;;;;;;;0.10;0.10;;;;;;;;;;5078934;28;20106;-83
2022/08/13 05:27:42;;;;;;;0.10;0.10;;;;;;;;;;5065445;28;20033;-82
2022/08/13 05:30:09;;;;;;;0.10;0.10;;;;;;;;;;5065846;28;20075;-82
2022/08/13 05:32:38;;;;;;;0.10;0.10;;;;;;;;;;5055820;28;20051;-82
2022/08/13 05:35:11;;;;;;;0.20;0.20;;;;;;;;;;5074350;28;20093;-83
2022/08/13 05:37:37;;;;;;;0.20;0.20;;;;;;;;;;5071807;28;20117;-83
2022/08/13 05:40:03;;;;;;;0.10;0.10;;;;;;;;;;5072777;28;20053;-82
2022/08/13 05:42:33;;;;;;;0.20;0.20;;;;;;;;;;5062468;28;20083;-83
2022/08/13 05:44:59;;;;;;;0.20;0.20;;;;;;;;;;5068815;28;20076;-82
2022/08/13 05:47:25;;;;;;;0.20;0.20;;;;;;;;;;5066992;28;20049;-82
2022/08/13 05:49:52;;;;;;;0.10;0.10;;;;;;;;;;5083476;28;20124;-83
2022/08/13 05:52:18;;;;;;;0.20;0.20;;;;;;;;;;5064167;28;20466;-83
2022/08/13 05:54:44;;;;;;;0.20;0.20;;;;;;;;;;5067277;28;20043;-83
2022/08/13 05:57:10;;;;;;;0.20;0.20;;;;;;;;;;5068264;28;20109;-83
2022/08/13 06:05:06;;;;;;;0.10;0.10;;;;;;;;;;5067337;28;20043;-84
2022/08/13 06:07:32;;;;;;;0.20;0.20;;;;;;;;;;5072489;28;20072;-83
2022/08/13 06:09:58;;;;;;;0.20;0.20;;;;;;;;;;5066581;28;20053;-82
2022/08/13 06:12:25;;;;;;;0.20;0.20;;;;;;;;;;5075385;28;20084;-82
2022/08/13 06:14:52;;;;;;;0.20;0.20;;;;;;;;;;5079854;28;20045;-82
2022/08/13 06:17:19;;;;;;;0.20;0.20;;;;;;;;;;5067135;28;20053;-83
2022/08/13 06:19:45;;;;;;;0.10;0.10;;;;;;;;;;5062335;28;20048;-82
2022/08/13 06:22:12;;;;;;;0.10;0.10;;;;;;;;;;5066513;28;20060;-83
2022/08/13 06:24:38;;;;;;;0.10;0.10;;;;;;;;;;5081238;28;20114;-83
2022/08/13 06:27:05;;;;;;;0.10;0.10;;;;;;;;;;5066145;28;20518;-83
2022/08/13 06:29:40;;;;;;;0.20;0.20;;;;;;;;;;5068190;28;20044;-81
2022/08/13 06:32:06;;;;;;;0.20;0.20;;;;;;;;;;5085476;28;20040;-81
2022/08/13 06:34:35;;;;;;;0.10;0.10;;;;;;;;;;5089176;28;20036;-82
2022/08/13 06:37:04;;;;;;;0.20;0.20;;;;;;;;;;5079718;28;20383;-83
2022/08/13 06:39:31;;;;;;;0.20;0.20;;;;;;;;;;5074642;28;20045;-82
2022/08/13 06:42:02;;;;;;;0.20;0.20;;;;;;;;;;5080606;28;20041;-84
2022/08/13 06:44:28;;;;;;;;;;;;;;;;;;5061251;28;20085;-83
2022/08/13 06:46:54;;;;;;;0.20;0.20;;;;;;;;;;5067823;28;20011;-83
2022/08/13 06:49:20;;;;;;;0.10;0.10;;;;;;;;;;5062099;28;20036;-84
2022/08/13 06:51:46;;;;;;;0.20;0.20;;;;;;;;;;5056064;28;20401;-85
2022/08/13 06:54:12;;;;;;;0.20;0.20;;;;;;;;;;5062531;28;20080;-83
2022/08/13 06:56:38;;;;;;;0.20;0.20;;;;;;;;;;5077900;28;20096;-84
2022/08/13 06:59:04;;;;;;;0.20;0.20;;;;;;;;;;5070934;28;20050;-85
2022/08/13 07:01:30;;;;;;;0.10;0.10;;;;;;;;;;5068616;28;20400;-85
2022/08/13 07:03:56;;;;;;;0.20;0.20;;;;;;;;;;5071407;28;20055;-86
2022/08/13 07:06:26;;;;;;;0.20;0.20;;;;;;;;;;5063984;28;20056;-84
2022/08/13 07:08:56;;;;;;;0.10;0.10;;;;;;;;;;5069496;28;20048;-85
2022/08/13 07:11:27;;;;;;;0.10;0.10;;;;;;;;;;5064280;28;20087;-85
2022/08/13 07:13:57;;;;;;;0.20;0.20;;;;;;;;;;5069522;28;20082;-85
2022/08/13 07:16:24;;;;;;;0.20;0.20;;;;;;;;;;5070609;28;20106;-87
2022/08/13 07:18:51;;;;;;;0.20;0.20;;;;;;;;;;5066204;28;20397;-85
2022/08/13 07:21:19;;;;;;;0.20;0.20;;;;;;;;;;5054200;28;20573;-85
2022/08/13 07:23:46;;;;;;;0.20;0.20;;;;;;;;;;5071085;28;20056;-85
2022/08/13 07:26:12;;;;;;;0.20;0.20;;;;;;;;;;5064747;28;20055;-85
2022/08/13 07:28:40;;;;;;;0.10;0.10;;;;;;;;;;5067582;28;20033;-86
2022/08/13 07:31:07;;;;;;;0.13;0.13;;;;;;;;;;5059516;28;20063;-86
2022/08/13 07:33:37;;;;;;;0.20;0.20;;;;;;;;;;5075091;28;20490;-86
2022/08/13 07:36:06;;;;;;;0.20;0.20;;;;;;;;;;5059046;28;20051;-85
2022/08/13 07:38:33;;;;;;;0.10;0.10;;;;;;;;;;5060179;28;20048;-85
2022/08/13 07:41:01;;;;;;;0.20;0.20;;;;;;;;;;5067137;28;20652;-86
2022/08/13 07:43:28;;;;;;;0.20;0.20;;;;;;;;;;5066334;28;21985;-87
2022/08/13 07:46:10;;;;;;;0.10;0.10;;;;;;;;;;5078772;28;20067;-86
2022/08/13 07:48:36;;;;;;;0.10;0.10;;;;;;;;;;5066924;28;20167;-89
2022/08/13 07:51:03;;;;;;;0.10;0.10;;;;;;;;;;5066820;28;20531;-87
2022/08/13 07:53:30;;;;;;;0.20;0.20;;;;;;;;;;5067069;28;20515;-89
2022/08/13 07:55:56;;;;;;;0.20;0.20;;;;;;;;;;5058544;28;20407;-89
2022/08/13 07:58:27;;;;;;;0.20;0.20;;;;;;;;;;5064516;28;20041;-88
2022/08/13 08:00:59;;;;;;;0.30;0.30;;;;;;;;;;5052169;28;20056;-88
2022/08/13 08:03:42;;;;;;;0.20;0.20;;;;;;;;;;5061820;28;20143;-87
2022/08/13 08:06:08;;;;;;;0.25;0.25;;;;;;;;;;5068541;28;20084;-86
2022/08/13 08:08:35;;;;;;;0.20;0.20;;;;;;;;;;5053653;28;20053;-83
2022/08/13 08:11:01;;;;;;;0.20;0.20;;;;;;;;;;5061120;28;20041;-87
2022/08/13 08:13:31;;;;;;;0.20;0.20;;;;;;;;;;5059577;28;20052;-87
2022/08/13 08:15:57;;;;;;;0.10;0.10;;;;;;;;;;5059805;28;20040;-84
2022/08/13 08:18:24;;;;;;;0.20;0.20;;;;;;;;;;5057796;28;20101;-84
2022/08/13 08:21:00;;;;;;;0.20;0.20;;;;;;;;;;5056231;28;20123;-84
2022/08/13 08:23:27;;;;;;;0.10;0.10;;;;;;;;;;5051242;28;20048;-85
2022/08/13 08:25:54;;;;;;;0.20;0.20;;;;;;;;;;5061058;28;20065;-82
2022/08/13 08:28:20;;;;;;;0.20;0.20;;;;;;;;;;5063543;28;20098;-82
2022/08/13 08:30:48;;;;;;;0.20;0.20;;;;;;;;;;5067763;28;20065;-83
2022/08/13 08:33:14;;;;;;;0.20;0.20;;;;;;;;;;5054175;28;20041;-81
2022/08/13 08:35:41;;;;;;;0.22;0.22;;;;;;;;;;5062215;28;20610;-82
2022/08/13 08:43:37;;;;;;;0.20;0.20;;;;;;;;;;5071245;28;20417;-84
2022/08/13 08:46:05;;;;;;;0.20;0.20;;;;;;;;;;5072964;28;20049;-84
2022/08/13 08:48:32;;;;;;;0.20;0.20;;;;;;;;;;5070263;28;20040;-92
2022/08/13 08:50:59;;;;;;;0.20;0.20;;;;;;;;;;5069763;28;20052;-82
2022/08/13 08:53:27;;;;;;;0.20;0.20;;;;;;;;;;5071141;28;20457;-83
2022/08/13 08:55:53;;;;;;;0.17;0.17;;;;;;;;;;5069916;28;20068;-83
2022/08/13 08:58:20;;;;;;;0.20;0.20;;;;;;;;;;5071368;28;20492;-83
2022/08/13 09:00:47;;;;;;;0.20;0.20;;;;;;;;;;5071102;28;20049;-82
2022/08/13 09:03:19;;;;;;;0.20;0.20;;;;;;;;;;5058957;28;20057;-81
2022/08/13 09:05:48;;;;;;;0.20;0.20;;;;;;;;;;5053281;28;20389;-83
2022/08/13 09:08:16;;;;;;;0.20;0.20;;;;;;;;;;5069768;28;20512;-82
2022/08/13 09:10:44;;;;;;;0.28;0.28;;;;;;;;;;5068198;28;20504;-83
2022/08/13 09:13:16;;;;;;;0.20;0.20;;;;;;;;;;5057143;28;20080;-83
2022/08/13 09:15:42;;;;;;;0.20;0.20;;;;;;;;;;5059116;28;20682;-81
2022/08/13 09:18:08;;;;;;;0.20;0.20;;;;;;;;;;5059037;28;20492;-79
2022/08/13 09:20:34;;;;;;;0.20;0.20;;;;;;;;;;5070457;28;20056;-81
2022/08/13 09:23:03;;;;;;;0.20;0.20;;;;;;;;;;5060365;28;20094;-82
2022/08/13 09:25:29;;;;;;;0.20;0.20;;;;;;;;;;5066518;28;20098;-80
2022/08/13 09:27:56;;;;;;;0.20;0.20;;;25.30;86.10;;;;;;5068457;28;20575;-81
2022/08/13 09:30:21;;;;;;;0.20;0.20;;;25.30;84.80;;;;;;5053577;28;20507;-79
2022/08/13 09:32:49;;;;;;;0.30;0.30;;;25.40;83.80;;;;;;5059607;28;20044;-79
2022/08/13 09:35:15;;;;;;;0.20;0.20;;;25.40;84.20;;;;;;5057339;28;20524;-79
2022/08/13 09:37:41;;;;;;;0.30;0.30;;;25.60;83.30;;;;;;5072192;28;20028;-79
2022/08/13 09:40:11;;;;;;;0.20;0.20;;;25.70;82.80;;;;;;5071640;28;20798;-80
2022/08/13 09:42:57;;;;;;;0.20;0.20;;;25.70;82.60;;;;;;5060015;28;20421;-78
2022/08/13 09:45:27;;;;;;;0.20;0.20;;;25.70;82.50;;;;;;5060998;28;20045;-78
2022/08/13 09:47:54;;;;;;;0.20;0.20;;;25.80;79.50;;;;;;5058323;28;20040;-80
2022/08/13 09:50:21;;;;;;;0.20;0.20;;;26.00;80.60;;;;;;5058246;28;20049;-80
2022/08/13 09:52:48;;;;;;;0.20;0.20;;;26.10;80.60;;;;;;5055539;28;20038;-80
2022/08/13 09:55:14;;;;;;;0.20;0.20;;;26.10;79.40;;;;;;5070737;28;20056;-79
2022/08/13 09:57:52;;;;;;;0.22;0.22;;;26.20;78.80;;;;;;5058193;28;20041;-80
2022/08/13 10:00:22;;;;;;;0.20;0.20;;;26.30;78.80;;;;;;5056414;28;20485;-80
2022/08/13 10:02:56;;;;;;;0.20;0.20;;;26.30;78.40;;;;;;5068025;28;20052;-80
2022/08/13 10:05:22;;;;;;;0.20;0.20;;;26.30;77.50;;;;;;5069713;28;20044;-80
2022/08/13 10:07:47;;;;;;;0.20;0.20;;;26.40;77.80;;;;;;5054504;28;20036;-79
2022/08/13 10:10:15;;;;;;;0.20;0.20;;;26.50;77.10;;;;;;5056287;28;20049;-79
2022/08/13 10:12:42;;;;;;;0.20;0.20;;;26.50;76.90;;;;;;5068517;28;20045;-79
2022/08/13 10:15:12;;;;;;;0.20;0.20;;;26.60;76.60;;;;;;5065922;28;20174;-79
2022/08/13 10:17:55;;;;;;;0.20;0.20;;;26.60;76.10;;;;;;5057701;28;20124;-80
2022/08/13 10:20:33;;;;;;;0.20;0.20;;;26.60;75.40;;;;;;5081110;28;20063;-80
2022/08/13 10:23:01;;;;;;;0.20;0.20;;;26.70;75.20;;;;;;5066223;28;20115;-80
2022/08/13 10:25:28;;;;;;;0.20;0.20;;;26.70;74.90;;;;;;5068310;28;20059;-80
2022/08/13 10:27:54;;;;;;;0.20;0.20;;;26.90;73.70;;;;;;5068328;28;20052;-80
2022/08/13 10:30:24;;;;;;;0.20;0.20;;;26.90;74.20;;;;;;5070279;28;20324;-81
2022/08/13 10:32:56;;;;;;;0.30;0.30;;;27.00;73.50;;;;;;5071088;28;20068;-81
2022/08/13 10:35:27;;;;;;;0.20;0.20;;;27.00;73.50;;;;;;5070343;28;20041;-80
2022/08/13 10:37:56;;;;;;;;;;;27.10;73.40;;;;;;5067767;28;20124;-80
2022/08/13 10:40:24;;;;;;;0.20;0.20;;;27.10;72.90;;;;;;5068450;28;19920;-81
2022/08/13 10:42:51;;;;;;;0.20;0.20;;;27.20;72.60;;;;;;5070041;28;20036;-81
2022/08/13 10:45:19;;;;;;;0.20;0.20;;;27.30;71.80;;;;;;5070870;28;20101;-81
2022/08/13 10:47:51;;;;;;;0.20;0.20;;;27.40;72.00;;;;;;5069552;28;20047;-81
2022/08/13 10:50:26;;;;;;;0.20;0.20;;;27.40;71.90;;;;;;5064551;28;20123;-81
2022/08/13 10:52:52;;;;;;;0.20;0.20;;;27.50;71.20;;;;;;5067664;28;20044;-81
2022/08/13 10:55:17;;;;;;;0.30;0.30;;;27.50;71.10;;;;;;5068753;28;20484;-79
2022/08/13 10:57:45;;;;;;;0.20;0.20;;;27.60;70.70;;;;;;5068751;28;20044;-80
2022/08/13 11:00:14;;;;;;;0.30;0.30;;;27.60;70.50;;;;;;5070927;28;20108;-81
2022/08/13 11:02:40;;;;;;;0.20;0.20;;;27.70;70.10;;;;;;5068028;28;20048;-80
2022/08/13 11:05:08;;;;;;;0.20;0.20;;;27.80;69.90;;;;;;5070465;28;20121;-80
2022/08/13 11:07:36;;;;;;;0.30;0.30;;;27.80;68.00;;;;;;5061607;28;20087;-81
2022/08/13 11:10:05;;;;;;;0.20;0.20;;;27.90;67.80;;;;;;5075731;28;20456;-81
2022/08/13 11:12:31;;;;;;;0.20;0.20;;;28.10;68.80;;;;;;5072186;28;20049;-81
2022/08/13 11:14:56;;;;;;;0.20;0.20;;;28.10;68.90;;;;;;5069370;28;20032;-81
2022/08/13 11:17:23;;;;;;;0.20;0.20;;;28.20;68.40;;;;;;5068686;28;20139;-81
2022/08/13 11:19:51;;;;;;;0.20;0.20;;;28.30;68.60;;;;;;5069031;28;20078;-82
2022/08/13 11:22:17;;;;;;;0.20;0.20;;;28.30;68.70;;;;;;5068352;28;20036;-81
2022/08/13 11:24:43;;;;;;;0.20;0.20;;;28.40;68.30;;;;;;5069432;28;20050;-81
2022/08/13 11:27:08;;;;;;;0.20;0.20;;;28.50;68.30;;;;;;5069259;28;20186;-82
2022/08/13 11:29:34;;;;;;;0.20;0.20;;;28.50;68.20;;;;;;5069071;28;20037;-82
2022/08/13 11:32:00;;;;;;;0.20;0.20;;;28.60;67.60;;;;;;5068836;28;20040;-81
2022/08/13 11:34:25;;;;;;;0.20;0.20;;;28.70;66.90;;;;;;5070326;28;20052;-81
2022/08/13 11:36:52;;;;;;;0.20;0.20;;;28.70;67.10;;;;;;5067058;28;20638;-81
2022/08/13 11:39:18;;;;;;;0.20;0.20;;;28.70;67.30;;;;;;5067774;28;20040;-81
2022/08/13 11:41:43;;;;;;;0.20;0.20;;;28.90;66.70;;;;;;5069885;28;20447;-81
2022/08/13 11:44:09;;;;;;;0.20;0.20;;;28.90;66.50;;;;;;5067655;28;20032;-81
2022/08/13 11:46:35;;;;;;;0.30;0.30;;;28.90;66.20;;;;;;5063273;28;20043;-79
2022/08/13 11:49:01;;;;;;;0.20;0.20;;;29.00;66.10;;;;;;5067914;28;20045;-80
2022/08/13 11:51:26;;;;;;;0.20;0.20;;;29.10;65.10;;;;;;5079748;28;20274;-81
2022/08/13 11:53:52;;;;;;;0.20;0.20;;;29.20;66.10;;;;;;5074221;28;20575;-81
2022/08/13 11:56:18;;;;;;;0.20;0.20;;;29.20;65.70;;;;;;5049769;28;21745;-81
2022/08/13 11:58:43;;;;;;;0.20;0.20;;;29.30;65.20;;;;;;5081441;28;20032;-80
2022/08/13 12:01:09;;;;;;;0.20;0.20;;;29.40;65.00;;;;;;5067772;28;20055;-81
2022/08/13 12:03:38;;;;;;;0.20;0.20;;;29.40;64.20;;;;;;5061166;28;20136;-81
2022/08/13 12:06:04;;;;;;;0.20;0.20;;;29.50;64.80;;;;;;5079919;28;20044;-82
2022/08/13 12:08:30;;;;;;;0.22;0.22;;;29.60;62.80;;;;;;5078242;28;20123;-82
2022/08/13 12:10:55;;;;;;;0.20;0.20;;;29.70;62.70;;;;;;5077064;28;20147;-80
2022/08/13 12:13:21;;;;;;;0.20;0.20;;;29.70;62.90;;;;;;5077069;28;20076;-79
2022/08/13 12:15:47;;;;;;;0.20;0.20;;;29.80;63.60;;;;;;5088435;28;20051;-80
2022/08/13 12:18:15;;;;;;;0.20;0.20;;;29.80;63.80;;;;;;5078294;28;20029;-81
2022/08/13 12:20:41;;;;;;;0.20;0.20;;;29.90;63.90;;;;;;5073110;28;20266;-79
2022/08/13 12:23:08;;;;;;;0.20;0.20;;;30.00;63.50;;;;;;5066100;28;20489;-79
2022/08/13 12:25:37;;;;;;;0.20;0.20;;;30.10;64.00;;;;;;5055639;28;20040;-79
2022/08/13 12:28:12;;;;;;;0.20;0.20;;;30.20;63.90;;;;;;5052359;28;20087;-79
2022/08/13 12:30:39;;;;;;;0.20;0.20;;;30.30;63.50;;;;;;5052483;28;20552;-78
2022/08/13 12:33:05;;;;;;;0.20;0.20;;;30.40;63.30;;;;;;5061028;28;20037;-78
2022/08/13 12:35:32;;;;;;;0.20;0.20;;;30.40;62.90;;;;;;5083589;28;20404;-79
2022/08/13 12:37:57;;;;;;;0.20;0.20;;;30.50;63.00;;;;;;5089678;28;20075;-79
2022/08/13 12:40:23;;;;;;;0.20;0.20;;;30.60;63.00;;;;;;5102669;28;20055;-79
2022/08/13 12:42:49;;;;;;;0.20;0.20;;;30.80;62.40;;;;;;5094160;28;20040;-79
2022/08/13 12:45:16;;;;;;;0.20;0.20;;;30.90;62.90;;;;;;5093462;28;20040;-80
2022/08/13 12:47:46;;;;;;;0.20;0.20;;;31.00;63.10;;;;;;5086819;28;20051;-79
2022/08/13 12:50:12;;;;;;;0.20;0.20;;;31.20;62.50;;;;;;5073663;28;20135;-78
2022/08/13 12:52:37;;;;;;;0.20;0.20;;;31.30;62.80;;;;;;5071689;28;20044;-80
2022/08/13 12:55:04;;;;;;;0.20;0.20;;;31.40;62.10;;;;;;5061739;28;20076;-79
2022/08/13 12:57:30;;;;;;;0.20;0.20;;;31.50;61.80;;;;;;5051489;28;20056;-80
2022/08/13 12:59:56;;;;;;;0.20;0.20;;;31.50;61.90;;;;;;5067829;28;20048;-78
2022/08/13 13:02:22;;;;;;;0.20;0.20;;;31.70;62.00;;;;;;5070120;28;20060;-78
2022/08/13 13:04:48;;;;;;;0.20;0.20;;;31.80;62.10;;;;;;5074437;28;20055;-79
2022/08/13 13:07:14;;;;;;;0.28;0.28;;;31.90;61.60;;;;;;5072270;28;20040;-79
2022/08/13 13:09:40;;;;;;;0.20;0.20;;;32.00;61.70;;;;;;5063262;28;20036;-80
2022/08/13 13:12:06;;;;;;;0.20;0.20;;;32.10;61.60;;;;;;5071086;28;20432;-78
2022/08/13 13:14:32;;;;;;;0.20;0.20;;;32.10;61.50;;;;;;5070509;28;20052;-81
2022/08/13 13:16:57;;;;;;;0.20;0.20;;;32.30;60.90;;;;;;5070993;28;20037;-78
2022/08/13 13:19:23;;;;;;;0.30;0.30;;;32.30;60.90;;;;;;5064181;28;20070;-79
2022/08/13 13:21:49;;;;;;;0.20;0.20;;;32.40;61.20;;;;;;5070961;28;20045;-79
2022/08/13 13:24:16;;;;;;;0.20;0.20;;;32.40;61.50;;;;;;5067261;28;20155;-79
2022/08/13 13:26:42;;;;;;;0.20;0.20;;;32.50;61.20;;;;;;5071005;28;20040;-79
2022/08/13 13:29:10;;;;;;;0.20;0.20;;;32.50;60.70;;;;;;5069653;28;20707;-80
2022/08/13 13:31:37;;;;;;;0.20;0.20;;;32.60;60.30;;;;;;5070264;28;20507;-80
2022/08/13 13:34:04;;;;;;;0.20;0.20;;;32.70;59.90;;;;;;5071724;28;20045;-80
2022/08/13 13:36:30;;;;;;;0.20;0.20;;;32.80;60.00;;;;;;5070003;28;20047;-80
2022/08/13 13:38:55;;;;;;;0.20;0.20;;;32.80;60.00;;;;;;5069835;28;20070;-79
2022/08/13 13:41:21;;;;;;;0.20;0.20;;;32.90;59.70;;;;;;5085324;28;20038;-80
2022/08/13 13:43:47;;;;;;;0.20;0.20;;;32.90;59.70;;;;;;5078477;28;20048;-80